sensor_id;sensor_type;location;lat;lon;timestamp;P1;durP1;ratioP1;P2;durP2;ratioP2
25525;SDS011;13424;48.424;11.258;2022-08-01T00:01:12;6.63;;;4.82;;
25525;SDS011;13424;48.424;11.258;2022-08-01T00:03:39;4.90;;;4.50;;
25525;SDS011;13424;48.424;11.258;2022-08-01T00:06:04;4.93;;;4.50;;
25525;SDS011;13424;48.424;11.258;2022-08-01T00:08:49;7.18;;;4.05;;
25525;SDS011;13424;48.424;11.258;2022-08-01T00:11:15;5.40;;;4.28;;
25525;SDS011;13424;48.424;11.258;2022-08-01T00:13:41;5.45;;;5.00;;
25525;SDS011;13424;48.424;11.258;2022-08-01T00:20:05;5.00;;;4.63;;
25525;SDS011;13424;48.424;11.258;2022-08-01T00:22:34;6.50;;;4.90;;
25525;SDS011;13424;48.424;11.258;2022-08-01T00:25:01;4.95;;;4.43;;
25525;SDS011;13424;48.424;11.258;2022-08-01T00:27:28;7.53;;;4.57;;
25525;SDS011;13424;48.424;11.258;2022-08-01T00:29:54;7.32;;;4.82;;
25525;SDS011;13424;48.424;11.258;2022-08-01T00:32:20;5.00;;;4.60;;
25525;SDS011;13424;48.424;11.258;2022-08-01T00:34:46;6.40;;;4.72;;
25525;SDS011;13424;48.424;11.258;2022-08-01T00:37:12;6.68;;;5.00;;
25525;SDS011;13424;48.424;11.258;2022-08-01T00:39:50;6.72;;;4.50;;
25525;SDS011;13424;48.424;11.258;2022-08-01T00:42:16;5.35;;;4.85;;
25525;SDS011;13424;48.424;11.258;2022-08-01T00:44:42;5.80;;;4.97;;
25525;SDS011;13424;48.424;11.258;2022-08-01T00:47:08;4.85;;;4.45;;
25525;SDS011;13424;48.424;11.258;2022-08-01T00:49:34;6.10;;;5.07;;
25525;SDS011;13424;48.424;11.258;2022-08-01T00:52:00;5.53;;;4.90;;
25525;SDS011;13424;48.424;11.258;2022-08-01T00:54:29;7.25;;;5.13;;
25525;SDS011;13424;48.424;11.258;2022-08-01T00:56:56;5.32;;;4.93;;
25525;SDS011;13424;48.424;11.258;2022-08-01T00:59:23;4.97;;;4.47;;
25525;SDS011;13424;48.424;11.258;2022-08-01T01:01:51;6.35;;;4.63;;
25525;SDS011;13424;48.424;11.258;2022-08-01T01:04:17;5.65;;;4.88;;
25525;SDS011;13424;48.424;11.258;2022-08-01T01:09:46;5.65;;;4.85;;
25525;SDS011;13424;48.424;11.258;2022-08-01T01:15:42;4.80;;;4.40;;
25525;SDS011;13424;48.424;11.258;2022-08-01T01:18:45;10.23;;;5.03;;
25525;SDS011;13424;48.424;11.258;2022-08-01T01:31:10;5.45;;;4.93;;
25525;SDS011;13424;48.424;11.258;2022-08-01T01:33:39;5.53;;;4.85;;
25525;SDS011;13424;48.424;11.258;2022-08-01T01:36:09;5.75;;;5.15;;
25525;SDS011;13424;48.424;11.258;2022-08-01T01:38:40;5.85;;;5.28;;
25525;SDS011;13424;48.424;11.258;2022-08-01T01:41:11;5.70;;;5.20;;
25525;SDS011;13424;48.424;11.258;2022-08-01T01:43:40;8.43;;;5.05;;
25525;SDS011;13424;48.424;11.258;2022-08-01T01:46:08;7.22;;;5.50;;
25525;SDS011;13424;48.424;11.258;2022-08-01T01:48:36;6.97;;;5.32;;
25525;SDS011;13424;48.424;11.258;2022-08-01T01:51:14;6.40;;;5.80;;
25525;SDS011;13424;48.424;11.258;2022-08-01T01:53:41;9.48;;;5.40;;
25525;SDS011;13424;48.424;11.258;2022-08-01T01:56:10;6.00;;;5.03;;
25525;SDS011;13424;48.424;11.258;2022-08-01T01:58:39;4.88;;;4.22;;
25525;SDS011;13424;48.424;11.258;2022-08-01T02:01:07;5.38;;;4.78;;
25525;SDS011;13424;48.424;11.258;2022-08-01T02:03:36;5.00;;;4.32;;
25525;SDS011;13424;48.424;11.258;2022-08-01T02:06:03;4.93;;;4.43;;
25525;SDS011;13424;48.424;11.258;2022-08-01T02:08:30;7.88;;;4.80;;
25525;SDS011;13424;48.424;11.258;2022-08-01T02:10:58;6.47;;;4.70;;
25525;SDS011;13424;48.424;11.258;2022-08-01T02:13:55;5.28;;;4.53;;
25525;SDS011;13424;48.424;11.258;2022-08-01T02:16:27;4.60;;;4.20;;
25525;SDS011;13424;48.424;11.258;2022-08-01T02:18:58;5.10;;;4.68;;
25525;SDS011;13424;48.424;11.258;2022-08-01T02:21:46;5.50;;;4.93;;
25525;SDS011;13424;48.424;11.258;2022-08-01T02:25:09;4.88;;;4.47;;
25525;SDS011;13424;48.424;11.258;2022-08-01T02:27:26;5.00;;;4.50;;
25525;SDS011;13424;48.424;11.258;2022-08-01T02:30:04;7.57;;;4.73;;
25525;SDS011;13424;48.424;11.258;2022-08-01T02:32:40;4.65;;;4.25;;
25525;SDS011;13424;48.424;11.258;2022-08-01T02:35:20;4.80;;;4.30;;
25525;SDS011;13424;48.424;11.258;2022-08-01T02:37:58;5.45;;;4.25;;
25525;SDS011;13424;48.424;11.258;2022-08-01T02:40:28;5.00;;;4.50;;
25525;SDS011;13424;48.424;11.258;2022-08-01T02:42:58;8.13;;;4.70;;
25525;SDS011;13424;48.424;11.258;2022-08-01T02:45:27;5.28;;;4.60;;
25525;SDS011;13424;48.424;11.258;2022-08-01T02:47:59;4.90;;;4.32;;
25525;SDS011;13424;48.424;11.258;2022-08-01T02:50:35;5.10;;;4.60;;
25525;SDS011;13424;48.424;11.258;2022-08-01T02:53:02;4.57;;;4.18;;
25525;SDS011;13424;48.424;11.258;2022-08-01T02:55:31;4.68;;;4.15;;
25525;SDS011;13424;48.424;11.258;2022-08-01T02:57:59;5.38;;;4.85;;
25525;SDS011;13424;48.424;11.258;2022-08-01T03:00:28;5.47;;;4.97;;
25525;SDS011;13424;48.424;11.258;2022-08-01T03:02:56;4.97;;;4.38;;
25525;SDS011;13424;48.424;11.258;2022-08-01T03:05:24;5.93;;;4.93;;
25525;SDS011;13424;48.424;11.258;2022-08-01T03:07:53;6.55;;;4.65;;
25525;SDS011;13424;48.424;11.258;2022-08-01T03:10:21;6.20;;;4.28;;
25525;SDS011;13424;48.424;11.258;2022-08-01T03:12:49;5.85;;;4.03;;
25525;SDS011;13424;48.424;11.258;2022-08-01T03:15:16;8.60;;;5.03;;
25525;SDS011;13424;48.424;11.258;2022-08-01T03:17:45;5.75;;;4.68;;
25525;SDS011;13424;48.424;11.258;2022-08-01T03:20:15;5.35;;;4.85;;
25525;SDS011;13424;48.424;11.258;2022-08-01T03:25:13;5.22;;;4.72;;
25525;SDS011;13424;48.424;11.258;2022-08-01T03:27:42;4.55;;;4.15;;
25525;SDS011;13424;48.424;11.258;2022-08-01T03:30:11;9.07;;;5.60;;
25525;SDS011;13424;48.424;11.258;2022-08-01T03:32:41;6.93;;;5.25;;
25525;SDS011;13424;48.424;11.258;2022-08-01T03:35:08;8.27;;;5.30;;
25525;SDS011;13424;48.424;11.258;2022-08-01T03:37:43;5.28;;;4.82;;
25525;SDS011;13424;48.424;11.258;2022-08-01T03:40:40;4.80;;;4.30;;
25525;SDS011;13424;48.424;11.258;2022-08-01T03:43:15;4.35;;;3.92;;
25525;SDS011;13424;48.424;11.258;2022-08-01T03:46:11;5.53;;;4.90;;
25525;SDS011;13424;48.424;11.258;2022-08-01T03:48:47;4.22;;;3.83;;
25525;SDS011;13424;48.424;11.258;2022-08-01T03:51:15;6.00;;;4.40;;
25525;SDS011;13424;48.424;11.258;2022-08-01T03:53:44;6.50;;;3.85;;
25525;SDS011;13424;48.424;11.258;2022-08-01T03:56:12;4.90;;;4.45;;
25525;SDS011;13424;48.424;11.258;2022-08-01T03:58:41;6.13;;;4.50;;
25525;SDS011;13424;48.424;11.258;2022-08-01T04:01:09;6.05;;;4.38;;
25525;SDS011;13424;48.424;11.258;2022-08-01T04:03:36;8.43;;;4.72;;
25525;SDS011;13424;48.424;11.258;2022-08-01T04:06:06;8.27;;;4.57;;
25525;SDS011;13424;48.424;11.258;2022-08-01T04:08:38;4.95;;;4.50;;
25525;SDS011;13424;48.424;11.258;2022-08-01T04:11:07;6.15;;;4.55;;
25525;SDS011;13424;48.424;11.258;2022-08-01T04:13:40;5.22;;;4.72;;
25525;SDS011;13424;48.424;11.258;2022-08-01T04:16:06;4.78;;;3.97;;
25525;SDS011;13424;48.424;11.258;2022-08-01T04:18:33;5.72;;;4.78;;
25525;SDS011;13424;48.424;11.258;2022-08-01T04:20:59;6.00;;;5.40;;
25525;SDS011;13424;48.424;11.258;2022-08-01T04:23:27;6.18;;;4.90;;
25525;SDS011;13424;48.424;11.258;2022-08-01T04:28:24;5.35;;;4.22;;
25525;SDS011;13424;48.424;11.258;2022-08-01T04:30:53;5.93;;;4.25;;
25525;SDS011;13424;48.424;11.258;2022-08-01T04:33:20;5.03;;;4.53;;
25525;SDS011;13424;48.424;11.258;2022-08-01T04:35:48;6.43;;;4.43;;
25525;SDS011;13424;48.424;11.258;2022-08-01T04:38:19;5.80;;;4.20;;
25525;SDS011;13424;48.424;11.258;2022-08-01T04:40:49;6.10;;;4.63;;
25525;SDS011;13424;48.424;11.258;2022-08-01T04:43:17;7.10;;;4.47;;
25525;SDS011;13424;48.424;11.258;2022-08-01T04:45:44;4.10;;;3.70;;
25525;SDS011;13424;48.424;11.258;2022-08-01T04:48:12;8.73;;;4.82;;
25525;SDS011;13424;48.424;11.258;2022-08-01T04:50:41;6.68;;;4.15;;
25525;SDS011;13424;48.424;11.258;2022-08-01T04:53:14;4.35;;;4.00;;
25525;SDS011;13424;48.424;11.258;2022-08-01T04:55:44;5.00;;;4.22;;
25525;SDS011;13424;48.424;11.258;2022-08-01T04:58:16;5.43;;;4.40;;
25525;SDS011;13424;48.424;11.258;2022-08-01T05:00:43;4.55;;;4.15;;
25525;SDS011;13424;48.424;11.258;2022-08-01T05:03:09;5.10;;;4.45;;
25525;SDS011;13424;48.424;11.258;2022-08-01T05:05:35;4.60;;;3.92;;
25525;SDS011;13424;48.424;11.258;2022-08-01T05:08:01;5.13;;;4.63;;
25525;SDS011;13424;48.424;11.258;2022-08-01T05:10:27;4.32;;;3.97;;
25525;SDS011;13424;48.424;11.258;2022-08-01T05:12:53;4.75;;;4.35;;
25525;SDS011;13424;48.424;11.258;2022-08-01T05:15:19;5.15;;;4.65;;
25525;SDS011;13424;48.424;11.258;2022-08-01T05:17:46;9.02;;;5.00;;
25525;SDS011;13424;48.424;11.258;2022-08-01T05:20:13;7.55;;;4.82;;
25525;SDS011;13424;48.424;11.258;2022-08-01T05:22:39;7.05;;;4.60;;
25525;SDS011;13424;48.424;11.258;2022-08-01T05:25:06;7.50;;;4.00;;
25525;SDS011;13424;48.424;11.258;2022-08-01T05:27:32;4.88;;;4.40;;
25525;SDS011;13424;48.424;11.258;2022-08-01T05:32:30;6.78;;;4.10;;
25525;SDS011;13424;48.424;11.258;2022-08-01T05:34:57;4.28;;;3.88;;
25525;SDS011;13424;48.424;11.258;2022-08-01T05:37:22;5.07;;;4.10;;
25525;SDS011;13424;48.424;11.258;2022-08-01T05:39:48;7.60;;;4.60;;
25525;SDS011;13424;48.424;11.258;2022-08-01T05:42:14;6.47;;;4.07;;
25525;SDS011;13424;48.424;11.258;2022-08-01T05:44:41;7.75;;;4.20;;
25525;SDS011;13424;48.424;11.258;2022-08-01T05:47:07;4.80;;;4.28;;
25525;SDS011;13424;48.424;11.258;2022-08-01T05:49:32;4.28;;;3.97;;
25525;SDS011;13424;48.424;11.258;2022-08-01T05:51:58;5.90;;;4.20;;
25525;SDS011;13424;48.424;11.258;2022-08-01T05:54:27;5.35;;;4.25;;
25525;SDS011;13424;48.424;11.258;2022-08-01T05:56:53;4.68;;;4.28;;
25525;SDS011;13424;48.424;11.258;2022-08-01T05:59:23;4.82;;;4.35;;
25525;SDS011;13424;48.424;11.258;2022-08-01T06:01:49;4.68;;;4.00;;
25525;SDS011;13424;48.424;11.258;2022-08-01T06:04:15;5.75;;;4.05;;
25525;SDS011;13424;48.424;11.258;2022-08-01T06:06:41;4.70;;;4.18;;
25525;SDS011;13424;48.424;11.258;2022-08-01T06:09:07;4.20;;;3.80;;
25525;SDS011;13424;48.424;11.258;2022-08-01T06:11:32;4.20;;;3.80;;
25525;SDS011;13424;48.424;11.258;2022-08-01T06:14:00;6.32;;;5.00;;
25525;SDS011;13424;48.424;11.258;2022-08-01T06:16:26;3.92;;;3.60;;
25525;SDS011;13424;48.424;11.258;2022-08-01T06:18:52;5.18;;;3.78;;
25525;SDS011;13424;48.424;11.258;2022-08-01T06:21:18;4.05;;;3.65;;
25525;SDS011;13424;48.424;11.258;2022-08-01T06:23:44;9.93;;;4.00;;
25525;SDS011;13424;48.424;11.258;2022-08-01T06:26:10;4.50;;;3.88;;
25525;SDS011;13424;48.424;11.258;2022-08-01T06:28:37;6.90;;;4.28;;
25525;SDS011;13424;48.424;11.258;2022-08-01T06:31:04;6.32;;;4.20;;
25525;SDS011;13424;48.424;11.258;2022-08-01T06:33:30;3.80;;;3.38;;
25525;SDS011;13424;48.424;11.258;2022-08-01T06:35:56;5.85;;;3.78;;
25525;SDS011;13424;48.424;11.258;2022-08-01T06:38:34;4.35;;;3.92;;
25525;SDS011;13424;48.424;11.258;2022-08-01T06:41:00;4.95;;;4.00;;
25525;SDS011;13424;48.424;11.258;2022-08-01T06:43:26;7.07;;;4.38;;
25525;SDS011;13424;48.424;11.258;2022-08-01T06:45:52;5.45;;;3.90;;
25525;SDS011;13424;48.424;11.258;2022-08-01T06:48:18;5.30;;;3.58;;
25525;SDS011;13424;48.424;11.258;2022-08-01T06:50:44;4.15;;;3.75;;
25525;SDS011;13424;48.424;11.258;2022-08-01T06:53:10;3.70;;;3.40;;
25525;SDS011;13424;48.424;11.258;2022-08-01T06:55:36;5.80;;;4.03;;
25525;SDS011;13424;48.424;11.258;2022-08-01T06:58:02;3.70;;;3.40;;
25525;SDS011;13424;48.424;11.258;2022-08-01T07:00:28;4.32;;;3.58;;
25525;SDS011;13424;48.424;11.258;2022-08-01T07:02:55;4.07;;;3.67;;
25525;SDS011;13424;48.424;11.258;2022-08-01T07:05:24;4.13;;;3.72;;
25525;SDS011;13424;48.424;11.258;2022-08-01T07:07:50;5.25;;;3.83;;
25525;SDS011;13424;48.424;11.258;2022-08-01T07:10:16;5.50;;;3.75;;
25525;SDS011;13424;48.424;11.258;2022-08-01T07:12:43;5.65;;;4.18;;
25525;SDS011;13424;48.424;11.258;2022-08-01T07:15:09;4.38;;;3.78;;
25525;SDS011;13424;48.424;11.258;2022-08-01T07:17:40;3.90;;;3.53;;
25525;SDS011;13424;48.424;11.258;2022-08-01T07:20:09;5.95;;;4.07;;
25525;SDS011;13424;48.424;11.258;2022-08-01T07:22:37;4.72;;;3.92;;
25525;SDS011;13424;48.424;11.258;2022-08-01T07:25:04;4.30;;;4.00;;
25525;SDS011;13424;48.424;11.258;2022-08-01T07:27:31;4.15;;;3.75;;
25525;SDS011;13424;48.424;11.258;2022-08-01T07:29:57;4.85;;;4.20;;
25525;SDS011;13424;48.424;11.258;2022-08-01T07:32:24;4.03;;;3.72;;
25525;SDS011;13424;48.424;11.258;2022-08-01T07:34:50;5.55;;;3.70;;
25525;SDS011;13424;48.424;11.258;2022-08-01T07:37:16;4.07;;;3.15;;
25525;SDS011;13424;48.424;11.258;2022-08-01T07:39:42;4.18;;;3.45;;
25525;SDS011;13424;48.424;11.258;2022-08-01T07:42:08;5.10;;;3.47;;
25525;SDS011;13424;48.424;11.258;2022-08-01T07:44:35;4.05;;;3.63;;
25525;SDS011;13424;48.424;11.258;2022-08-01T07:47:02;3.90;;;3.50;;
25525;SDS011;13424;48.424;11.258;2022-08-01T07:49:30;6.40;;;3.63;;
25525;SDS011;13424;48.424;11.258;2022-08-01T07:51:57;8.07;;;4.10;;
25525;SDS011;13424;48.424;11.258;2022-08-01T07:54:23;4.57;;;3.80;;
25525;SDS011;13424;48.424;11.258;2022-08-01T07:56:50;3.95;;;3.55;;
25525;SDS011;13424;48.424;11.258;2022-08-01T07:59:16;4.82;;;3.40;;
25525;SDS011;13424;48.424;11.258;2022-08-01T08:01:50;3.75;;;3.47;;
25525;SDS011;13424;48.424;11.258;2022-08-01T08:04:17;4.65;;;4.18;;
25525;SDS011;13424;48.424;11.258;2022-08-01T08:06:44;3.75;;;3.45;;
25525;SDS011;13424;48.424;11.258;2022-08-01T08:09:13;4.28;;;3.80;;
25525;SDS011;13424;48.424;11.258;2022-08-01T08:11:44;4.45;;;4.05;;
25525;SDS011;13424;48.424;11.258;2022-08-01T08:14:11;4.75;;;4.25;;
25525;SDS011;13424;48.424;11.258;2022-08-01T08:16:37;6.70;;;4.25;;
25525;SDS011;13424;48.424;11.258;2022-08-01T08:19:04;6.32;;;4.13;;
25525;SDS011;13424;48.424;11.258;2022-08-01T08:21:30;4.78;;;4.28;;
25525;SDS011;13424;48.424;11.258;2022-08-01T08:23:56;4.63;;;4.13;;
25525;SDS011;13424;48.424;11.258;2022-08-01T08:26:41;5.97;;;4.00;;
25525;SDS011;13424;48.424;11.258;2022-08-01T08:29:07;5.53;;;4.80;;
25525;SDS011;13424;48.424;11.258;2022-08-01T08:31:33;5.93;;;4.00;;
25525;SDS011;13424;48.424;11.258;2022-08-01T08:33:59;4.50;;;4.10;;
25525;SDS011;13424;48.424;11.258;2022-08-01T08:36:25;7.30;;;4.15;;
25525;SDS011;13424;48.424;11.258;2022-08-01T08:38:51;4.30;;;3.90;;
25525;SDS011;13424;48.424;11.258;2022-08-01T08:41:17;4.35;;;3.95;;
25525;SDS011;13424;48.424;11.258;2022-08-01T08:43:43;5.13;;;4.63;;
25525;SDS011;13424;48.424;11.258;2022-08-01T08:46:09;4.07;;;3.70;;
25525;SDS011;13424;48.424;11.258;2022-08-01T08:48:40;4.82;;;4.30;;
25525;SDS011;13424;48.424;11.258;2022-08-01T08:51:08;6.45;;;4.10;;
25525;SDS011;13424;48.424;11.258;2022-08-01T08:53:40;4.28;;;3.88;;
25525;SDS011;13424;48.424;11.258;2022-08-01T08:56:12;5.60;;;4.40;;
25525;SDS011;13424;48.424;11.258;2022-08-01T08:58:41;4.75;;;3.83;;
25525;SDS011;13424;48.424;11.258;2022-08-01T09:01:10;3.95;;;3.55;;
25525;SDS011;13424;48.424;11.258;2022-08-01T09:03:37;4.10;;;3.70;;
25525;SDS011;13424;48.424;11.258;2022-08-01T09:06:05;3.85;;;3.50;;
25525;SDS011;13424;48.424;11.258;2022-08-01T09:08:32;4.53;;;3.65;;
25525;SDS011;13424;48.424;11.258;2022-08-01T09:10:58;5.82;;;3.90;;
25525;SDS011;13424;48.424;11.258;2022-08-01T09:13:24;5.55;;;4.75;;
25525;SDS011;13424;48.424;11.258;2022-08-01T09:15:52;3.90;;;3.60;;
25525;SDS011;13424;48.424;11.258;2022-08-01T09:23:35;4.60;;;4.00;;
25525;SDS011;13424;48.424;11.258;2022-08-01T09:26:06;4.65;;;3.60;;
25525;SDS011;13424;48.424;11.258;2022-08-01T09:28:32;3.90;;;3.60;;
25525;SDS011;13424;48.424;11.258;2022-08-01T09:30:58;4.97;;;3.70;;
25525;SDS011;13424;48.424;11.258;2022-08-01T09:33:47;3.78;;;3.47;;
25525;SDS011;13424;48.424;11.258;2022-08-01T09:36:24;6.05;;;3.33;;
25525;SDS011;13424;48.424;11.258;2022-08-01T09:41:31;4.30;;;2.85;;
25525;SDS011;13424;48.424;11.258;2022-08-01T09:43:59;4.53;;;2.60;;
25525;SDS011;13424;48.424;11.258;2022-08-01T09:46:25;3.08;;;2.88;;
25525;SDS011;13424;48.424;11.258;2022-08-01T09:48:58;2.83;;;2.53;;
25525;SDS011;13424;48.424;11.258;2022-08-01T09:51:36;3.35;;;2.80;;
25525;SDS011;13424;48.424;11.258;2022-08-01T09:54:04;2.28;;;2.17;;
25525;SDS011;13424;48.424;11.258;2022-08-01T09:56:42;3.38;;;3.00;;
25525;SDS011;13424;48.424;11.258;2022-08-01T09:59:08;3.17;;;2.20;;
25525;SDS011;13424;48.424;11.258;2022-08-01T10:01:43;4.45;;;3.03;;
25525;SDS011;13424;48.424;11.258;2022-08-01T10:04:19;5.03;;;2.63;;
25525;SDS011;13424;48.424;11.258;2022-08-01T10:06:48;10.57;;;2.85;;
25525;SDS011;13424;48.424;11.258;2022-08-01T10:09:28;2.28;;;2.00;;
25525;SDS011;13424;48.424;11.258;2022-08-01T10:11:57;1.98;;;1.75;;
25525;SDS011;13424;48.424;11.258;2022-08-01T10:14:27;2.28;;;1.80;;
25525;SDS011;13424;48.424;11.258;2022-08-01T10:16:57;2.85;;;1.98;;
25525;SDS011;13424;48.424;11.258;2022-08-01T10:19:26;1.67;;;1.58;;
25525;SDS011;13424;48.424;11.258;2022-08-01T10:21:55;3.47;;;1.65;;
25525;SDS011;13424;48.424;11.258;2022-08-01T10:24:24;2.45;;;1.98;;
25525;SDS011;13424;48.424;11.258;2022-08-01T10:26:56;2.38;;;1.80;;
25525;SDS011;13424;48.424;11.258;2022-08-01T10:29:32;2.95;;;1.80;;
25525;SDS011;13424;48.424;11.258;2022-08-01T10:32:06;2.53;;;1.92;;
25525;SDS011;13424;48.424;11.258;2022-08-01T10:34:34;2.47;;;1.90;;
25525;SDS011;13424;48.424;11.258;2022-08-01T10:37:06;2.75;;;1.90;;
25525;SDS011;13424;48.424;11.258;2022-08-01T10:39:33;8.20;;;1.77;;
25525;SDS011;13424;48.424;11.258;2022-08-01T10:42:02;2.42;;;2.20;;
25525;SDS011;13424;48.424;11.258;2022-08-01T10:44:30;2.83;;;1.83;;
25525;SDS011;13424;48.424;11.258;2022-08-01T10:47:11;2.33;;;1.98;;
25525;SDS011;13424;48.424;11.258;2022-08-01T10:50:02;1.75;;;1.65;;
25525;SDS011;13424;48.424;11.258;2022-08-01T10:53:12;2.33;;;2.13;;
25525;SDS011;13424;48.424;11.258;2022-08-01T11:01:16;3.33;;;1.60;;
25525;SDS011;13424;48.424;11.258;2022-08-01T11:03:57;3.50;;;2.05;;
25525;SDS011;13424;48.424;11.258;2022-08-01T11:06:55;2.58;;;2.38;;
25525;SDS011;13424;48.424;11.258;2022-08-01T11:09:40;3.15;;;2.25;;
25525;SDS011;13424;48.424;11.258;2022-08-01T11:12:17;2.75;;;1.95;;
25525;SDS011;13424;48.424;11.258;2022-08-01T11:17:30;2.22;;;2.00;;
25525;SDS011;13424;48.424;11.258;2022-08-01T11:20:17;2.75;;;1.85;;
25525;SDS011;13424;48.424;11.258;2022-08-01T11:30:53;16.95;;;2.42;;
25525;SDS011;13424;48.424;11.258;2022-08-01T11:38:39;13.57;;;2.47;;
25525;SDS011;13424;48.424;11.258;2022-08-01T11:41:15;2.00;;;1.90;;
25525;SDS011;13424;48.424;11.258;2022-08-01T11:44:12;3.13;;;1.92;;
25525;SDS011;13424;48.424;11.258;2022-08-01T11:46:45;3.85;;;2.00;;
25525;SDS011;13424;48.424;11.258;2022-08-01T11:52:12;2.85;;;1.90;;
25525;SDS011;13424;48.424;11.258;2022-08-01T11:54:43;3.35;;;1.80;;
25525;SDS011;13424;48.424;11.258;2022-08-01T11:57:22;3.45;;;1.90;;
25525;SDS011;13424;48.424;11.258;2022-08-01T11:59:55;6.45;;;1.88;;
25525;SDS011;13424;48.424;11.258;2022-08-01T12:02:28;2.53;;;1.90;;
25525;SDS011;13424;48.424;11.258;2022-08-01T12:05:11;2.78;;;1.88;;
25525;SDS011;13424;48.424;11.258;2022-08-01T12:07:43;4.13;;;1.90;;
25525;SDS011;13424;48.424;11.258;2022-08-01T12:10:15;3.17;;;2.20;;
25525;SDS011;13424;48.424;11.258;2022-08-01T12:12:45;2.78;;;2.10;;
25525;SDS011;13424;48.424;11.258;2022-08-01T12:15:14;2.38;;;2.15;;
25525;SDS011;13424;48.424;11.258;2022-08-01T12:17:47;3.47;;;2.05;;
25525;SDS011;13424;48.424;11.258;2022-08-01T12:20:21;2.00;;;1.77;;
25525;SDS011;13424;48.424;11.258;2022-08-01T12:22:56;2.58;;;1.63;;
25525;SDS011;13424;48.424;11.258;2022-08-01T12:25:25;2.08;;;1.77;;
25525;SDS011;13424;48.424;11.258;2022-08-01T12:27:51;2.13;;;1.88;;
25525;SDS011;13424;48.424;11.258;2022-08-01T12:30:19;2.38;;;2.08;;
25525;SDS011;13424;48.424;11.258;2022-08-01T12:32:50;3.45;;;1.73;;
25525;SDS011;13424;48.424;11.258;2022-08-01T12:35:20;2.53;;;1.77;;
25525;SDS011;13424;48.424;11.258;2022-08-01T12:37:54;2.20;;;2.00;;
25525;SDS011;13424;48.424;11.258;2022-08-01T12:40:29;2.25;;;2.05;;
25525;SDS011;13424;48.424;11.258;2022-08-01T12:43:02;2.78;;;1.88;;
25525;SDS011;13424;48.424;11.258;2022-08-01T12:45:35;2.03;;;1.63;;
25525;SDS011;13424;48.424;11.258;2022-08-01T12:48:12;1.95;;;1.85;;
25525;SDS011;13424;48.424;11.258;2022-08-01T12:50:48;3.90;;;2.75;;
25525;SDS011;13424;48.424;11.258;2022-08-01T12:53:16;2.15;;;1.95;;
25525;SDS011;13424;48.424;11.258;2022-08-01T12:55:50;2.65;;;1.90;;
25525;SDS011;13424;48.424;11.258;2022-08-01T12:58:20;2.13;;;1.77;;
25525;SDS011;13424;48.424;11.258;2022-08-01T13:00:49;2.95;;;1.83;;
25525;SDS011;13424;48.424;11.258;2022-08-01T13:03:27;3.60;;;2.00;;
25525;SDS011;13424;48.424;11.258;2022-08-01T13:05:54;2.00;;;1.90;;
25525;SDS011;13424;48.424;11.258;2022-08-01T13:11:08;1.85;;;1.75;;
25525;SDS011;13424;48.424;11.258;2022-08-01T13:13:44;4.47;;;2.00;;
25525;SDS011;13424;48.424;11.258;2022-08-01T13:16:16;2.67;;;1.65;;
25525;SDS011;13424;48.424;11.258;2022-08-01T13:18:53;1.80;;;1.70;;
25525;SDS011;13424;48.424;11.258;2022-08-01T13:21:26;1.98;;;1.58;;
25525;SDS011;13424;48.424;11.258;2022-08-01T13:24:10;2.13;;;1.95;;
25525;SDS011;13424;48.424;11.258;2022-08-01T13:26:47;3.17;;;2.40;;
25525;SDS011;13424;48.424;11.258;2022-08-01T13:29:20;1.95;;;1.80;;
25525;SDS011;13424;48.424;11.258;2022-08-01T13:31:54;3.85;;;2.08;;
25525;SDS011;13424;48.424;11.258;2022-08-01T13:34:33;3.15;;;2.30;;
25525;SDS011;13424;48.424;11.258;2022-08-01T13:37:00;3.97;;;2.15;;
25525;SDS011;13424;48.424;11.258;2022-08-01T13:39:32;3.60;;;2.20;;
25525;SDS011;13424;48.424;11.258;2022-08-01T13:42:16;2.13;;;1.85;;
25525;SDS011;13424;48.424;11.258;2022-08-01T13:44:43;4.95;;;1.63;;
25525;SDS011;13424;48.424;11.258;2022-08-01T13:47:12;2.38;;;2.15;;
25525;SDS011;13424;48.424;11.258;2022-08-01T13:49:38;7.55;;;2.40;;
25525;SDS011;13424;48.424;11.258;2022-08-01T13:52:04;2.85;;;2.17;;
25525;SDS011;13424;48.424;11.258;2022-08-01T13:54:33;3.53;;;2.33;;
25525;SDS011;13424;48.424;11.258;2022-08-01T13:56:59;2.65;;;2.10;;
25525;SDS011;13424;48.424;11.258;2022-08-01T13:59:26;6.05;;;2.58;;
25525;SDS011;13424;48.424;11.258;2022-08-01T14:01:52;2.22;;;2.03;;
25525;SDS011;13424;48.424;11.258;2022-08-01T14:04:19;2.70;;;1.88;;
25525;SDS011;13424;48.424;11.258;2022-08-01T14:06:46;3.72;;;2.42;;
25525;SDS011;13424;48.424;11.258;2022-08-01T14:09:12;2.55;;;2.35;;
25525;SDS011;13424;48.424;11.258;2022-08-01T14:11:42;6.43;;;2.00;;
25525;SDS011;13424;48.424;11.258;2022-08-01T14:14:08;2.47;;;2.28;;
25525;SDS011;13424;48.424;11.258;2022-08-01T14:16:34;7.72;;;2.60;;
25525;SDS011;13424;48.424;11.258;2022-08-01T14:23:27;3.00;;;2.30;;
25525;SDS011;13424;48.424;11.258;2022-08-01T14:25:53;3.35;;;2.20;;
25525;SDS011;13424;48.424;11.258;2022-08-01T14:28:19;2.65;;;2.08;;
25525;SDS011;13424;48.424;11.258;2022-08-01T14:30:46;3.03;;;2.28;;
25525;SDS011;13424;48.424;11.258;2022-08-01T14:33:13;2.28;;;2.08;;
25525;SDS011;13424;48.424;11.258;2022-08-01T14:35:40;4.30;;;2.25;;
25525;SDS011;13424;48.424;11.258;2022-08-01T14:38:09;2.33;;;1.90;;
25525;SDS011;13424;48.424;11.258;2022-08-01T14:40:35;3.75;;;2.25;;
25525;SDS011;13424;48.424;11.258;2022-08-01T14:43:01;4.40;;;2.45;;
25525;SDS011;13424;48.424;11.258;2022-08-01T14:45:27;2.45;;;1.38;;
25525;SDS011;13424;48.424;11.258;2022-08-01T14:47:54;2.72;;;1.90;;
25525;SDS011;13424;48.424;11.258;2022-08-01T14:50:20;2.67;;;1.15;;
25525;SDS011;13424;48.424;11.258;2022-08-01T14:56:03;1.55;;;1.13;;
25525;SDS011;13424;48.424;11.258;2022-08-01T14:58:29;7.00;;;1.60;;
25525;SDS011;13424;48.424;11.258;2022-08-01T15:00:55;2.40;;;1.50;;
25525;SDS011;13424;48.424;11.258;2022-08-01T15:03:22;4.32;;;1.30;;
25525;SDS011;13424;48.424;11.258;2022-08-01T15:05:48;2.50;;;1.23;;
25525;SDS011;13424;48.424;11.258;2022-08-01T15:08:14;5.43;;;1.70;;
25525;SDS011;13424;48.424;11.258;2022-08-01T15:10:40;0.90;;;0.90;;
25525;SDS011;13424;48.424;11.258;2022-08-01T15:13:06;3.03;;;1.20;;
25525;SDS011;13424;48.424;11.258;2022-08-01T15:15:33;1.17;;;1.05;;
25525;SDS011;13424;48.424;11.258;2022-08-01T15:17:59;2.38;;;1.52;;
25525;SDS011;13424;48.424;11.258;2022-08-01T15:20:24;3.00;;;1.20;;
25525;SDS011;13424;48.424;11.258;2022-08-01T15:22:52;2.92;;;1.08;;
25525;SDS011;13424;48.424;11.258;2022-08-01T15:25:19;1.10;;;1.00;;
25525;SDS011;13424;48.424;11.258;2022-08-01T15:27:47;1.25;;;0.95;;
25525;SDS011;13424;48.424;11.258;2022-08-01T15:30:13;2.28;;;0.80;;
25525;SDS011;13424;48.424;11.258;2022-08-01T15:32:39;1.10;;;1.00;;
25525;SDS011;13424;48.424;11.258;2022-08-01T15:35:05;1.55;;;0.85;;
25525;SDS011;13424;48.424;11.258;2022-08-01T15:37:32;1.80;;;0.80;;
25525;SDS011;13424;48.424;11.258;2022-08-01T15:39:58;0.93;;;0.80;;
25525;SDS011;13424;48.424;11.258;2022-08-01T15:42:24;1.00;;;0.77;;
25525;SDS011;13424;48.424;11.258;2022-08-01T15:44:50;2.88;;;0.80;;
25525;SDS011;13424;48.424;11.258;2022-08-01T15:47:15;1.25;;;0.82;;
25525;SDS011;13424;48.424;11.258;2022-08-01T15:49:41;0.60;;;0.60;;
25525;SDS011;13424;48.424;11.258;2022-08-01T15:52:08;0.88;;;0.88;;
25525;SDS011;13424;48.424;11.258;2022-08-01T15:54:36;1.13;;;1.08;;
25525;SDS011;13424;48.424;11.258;2022-08-01T15:57:05;1.35;;;0.90;;
25525;SDS011;13424;48.424;11.258;2022-08-01T15:59:32;0.60;;;0.60;;